Pompano Beach, FL (33067)

12:52 AM EST on February 13, 2016 (GMT -0500)
Coral Creek | | Change Station
CLOSE
Current Station
Personal Weather Station
Location: Coral Springs, FL
Elevation: 30 ft
Nearby Weather Stations

Elev 30 ft 26.30 °N, 80.20 °W | Updated 2 seconds ago

Clear
Clear
60.1 °F
Feels Like 60.1 °F
N
1.0
Wind Variable Wind from WNW
Gusts 2.2 mph

Today
High -- | Low -- °F
--% Chance of Precip.
Yesterday
High -- | Low -- °F
Precip. -- in
Pressure 30.22 in
Visibility 10.0 miles
Clouds Clear
Dew Point 50 °F
Humidity 69%
Rainfall 0.00 in
Snow Depth Not available.
6:58 AM 6:12 PM
Waxing Crescent, 27% visible
METAR KPMP 130453Z AUTO 29006KT 10SM CLR 16/12 A3021 RMK AO2 SLP231 T01610117 402280100
Pressure 30.22 in
Visibility 10.0 miles
Clouds Clear
Dew Point 50 °F
Humidity 69%
Rainfall 0.00 in
Snow Depth Not available.
6:58 AM 6:12 PM
Waxing Crescent, 27% visible
METAR KPMP 130453Z AUTO 29006KT 10SM CLR 16/12 A3021 RMK AO2 SLP231 T01610117 402280100

10-Day Weather Forecast

Almanac

Astronomy

Feb. 13, 2016 Rise Set
Actual Time
Civil Twilight
Nautical Twilight
Astronomical Twilight
Moon
Length of Visible Light
Length of Day
Tomorrow will be .
, % of the Moon is Illuminated

Today's Extremes

State Highs State Lows

Community

WunderPhotos

Upload Photos

1,892,507 photos uploaded!

WunderBlog® & News

Nearby

Air Quality

  Air Quality AQ Index Pollutant
Not available.

Snow Depth

Station Depth Elevation

Earthquake Activity

City Distance Mag. Time & Date
Minimum magnitude displayed is 2.5.

Coastal Water Temperatures

Place Temperature

Stations

Nearby Weather Stations

Station Location Temp. Windchill Dew Point Humidity Wind Precip. Elev Updated Type
                   

Watches & Warnings

There are currently no watches in effect.